createdAt,value
2019-01-30T00:00:10.772Z,97132.28
2019-01-30T00:02:43.303Z,97122.91
2019-01-30T00:05:14.338Z,97121.05
2019-01-30T00:07:45.072Z,97125.45
2019-01-30T00:10:16.158Z,97116.47
2019-01-30T00:12:47.247Z,97114.53
2019-01-30T00:15:18.558Z,97106.20
2019-01-30T00:17:49.353Z,97086.44
2019-01-30T00:20:20.321Z,97086.01
2019-01-30T00:22:51.246Z,97078.31
2019-01-30T00:25:23.987Z,97079.88
2019-01-30T00:27:54.934Z,97077.41
2019-01-30T00:30:26.452Z,97077.69
2019-01-30T00:32:57.413Z,97065.22
2019-01-30T00:35:28.397Z,97045.35
2019-01-30T00:37:59.229Z,97037.73
2019-01-30T00:40:30.315Z,97043.96
2019-01-30T00:43:01.086Z,97039.71
2019-01-30T00:45:31.963Z,97033.36
2019-01-30T00:48:02.850Z,97026.53
2019-01-30T00:50:33.828Z,97019.75
2019-01-30T00:53:04.924Z,97016.81
2019-01-30T00:55:36.298Z,97018.13
2019-01-30T00:58:07.340Z,97015.15
2019-01-30T01:00:38.415Z,97008.09
2019-01-30T01:03:09.303Z,97001.85
2019-01-30T01:05:40.160Z,96991.36
2019-01-30T01:08:10.978Z,96992.97
2019-01-30T01:10:42.377Z,97004.94
2019-01-30T01:13:14.617Z,96985.16
2019-01-30T01:15:45.689Z,96975.59
2019-01-30T01:18:17.589Z,96975.31
2019-01-30T01:20:48.864Z,96968.13
2019-01-30T01:23:19.881Z,96966.73
2019-01-30T01:25:50.786Z,96968.03
2019-01-30T01:28:21.657Z,96968.91
2019-01-30T01:30:52.642Z,96966.31
2019-01-30T01:33:24.973Z,96977.29
2019-01-30T01:35:56.034Z,96982.60
2019-01-30T01:38:27.131Z,96968.22
2019-01-30T01:40:58.037Z,96978.19
2019-01-30T01:43:28.923Z,96983.11
2019-01-30T01:45:59.849Z,96980.63
2019-01-30T01:48:30.515Z,96974.44
2019-01-30T01:51:01.517Z,96983.99
2019-01-30T01:53:32.390Z,96974.44
2019-01-30T01:56:03.470Z,96979.30
2019-01-30T01:58:34.355Z,96971.78
2019-01-30T02:01:05.357Z,96962.34
2019-01-30T02:03:36.244Z,96962.00
2019-01-30T02:06:07.396Z,96965.09
2019-01-30T02:08:38.315Z,96964.47
2019-01-30T02:11:09.333Z,96952.41
2019-01-30T02:13:40.119Z,96951.84
2019-01-30T02:16:10.998Z,96954.02
2019-01-30T02:18:42.066Z,96940.33
2019-01-30T02:21:13.063Z,96944.27
2019-01-30T02:23:45.071Z,96939.11
2019-01-30T02:26:15.981Z,96940.88
2019-01-30T02:28:46.759Z,96924.73
2019-01-30T02:31:18.188Z,96920.03
2019-01-30T02:33:49.031Z,96916.94
2019-01-30T02:36:20.038Z,96911.19
2019-01-30T02:38:50.824Z,96908.83
2019-01-30T02:41:21.888Z,96906.77
2019-01-30T02:43:52.680Z,96897.34
2019-01-30T02:46:23.758Z,96892.05
2019-01-30T02:48:54.582Z,96897.98
2019-01-30T02:51:25.886Z,96895.20
2019-01-30T02:53:57.765Z,96905.58
2019-01-30T02:56:28.745Z,96900.56
2019-01-30T02:58:59.643Z,96904.63
2019-01-30T03:01:30.751Z,96896.45
2019-01-30T03:04:01.540Z,96917.29
2019-01-30T03:06:32.651Z,96911.34
2019-01-30T03:09:03.781Z,96907.05
2019-01-30T03:11:36.016Z,96900.02
2019-01-30T03:14:07.035Z,96897.64
2019-01-30T03:16:38.314Z,96891.11
2019-01-30T03:19:09.313Z,96887.32
2019-01-30T03:21:40.458Z,96877.77
2019-01-30T03:24:11.401Z,96872.97
2019-01-30T03:26:42.378Z,96867.24
2019-01-30T03:29:13.158Z,96864.00
2019-01-30T03:31:44.159Z,96871.73
2019-01-30T03:34:14.853Z,96866.42
2019-01-30T03:36:45.751Z,96864.22
2019-01-30T03:39:16.526Z,96858.10
2019-01-30T03:41:47.412Z,96845.81
2019-01-30T03:44:18.280Z,96847.27
2019-01-30T03:46:49.329Z,96834.61
2019-01-30T03:49:20.445Z,96829.95
2019-01-30T03:51:51.459Z,96828.62
2019-01-30T03:54:22.344Z,96836.55
2019-01-30T03:56:53.352Z,96838.91
2019-01-30T03:59:24.218Z,96828.35
2019-01-30T04:01:55.234Z,96822.70
2019-01-30T04:04:26.016Z,96828.80
2019-01-30T04:06:57.100Z,96812.97
2019-01-30T04:09:27.989Z,96814.80
2019-01-30T04:11:58.966Z,96803.70
2019-01-30T04:14:29.859Z,96810.48
2019-01-30T04:17:00.798Z,96805.55
2019-01-30T04:19:31.752Z,96794.81
2019-01-30T04:22:02.740Z,96792.59
2019-01-30T04:24:33.634Z,96793.50
2019-01-30T04:27:04.612Z,96786.56
2019-01-30T04:29:35.482Z,96791.13
2019-01-30T04:32:06.759Z,96791.37
2019-01-30T04:34:37.591Z,96788.80
2019-01-30T04:37:08.711Z,96779.08
2019-01-30T04:39:39.657Z,96785.70
2019-01-30T04:42:10.704Z,96785.10
2019-01-30T04:44:41.642Z,96793.19
2019-01-30T04:47:12.605Z,96793.50
2019-01-30T04:49:43.510Z,96795.47
2019-01-30T04:52:14.490Z,96789.06
2019-01-30T04:54:45.187Z,96791.86
2019-01-30T04:57:16.191Z,96787.53
2019-01-30T04:59:46.963Z,96805.29
2019-01-30T05:02:18.038Z,96784.05
2019-01-30T05:04:48.940Z,96796.06
2019-01-30T05:07:20.394Z,96805.65
2019-01-30T05:09:51.349Z,96836.63
2019-01-30T05:12:22.349Z,96841.48
2019-01-30T05:14:53.201Z,96864.98
2019-01-30T05:17:24.251Z,96851.98
2019-01-30T05:19:54.804Z,96850.34
2019-01-30T05:22:26.210Z,96842.81
2019-01-30T05:24:56.762Z,96842.66
2019-01-30T05:27:27.463Z,96840.56
2019-01-30T05:29:58.011Z,96834.94
2019-01-30T05:32:28.631Z,96832.43
2019-01-30T05:34:59.231Z,96844.73
2019-01-30T05:37:30.017Z,96853.87
2019-01-30T05:40:00.967Z,96843.14
2019-01-30T05:42:31.978Z,96850.07
2019-01-30T05:45:02.514Z,96854.36
2019-01-30T05:47:33.198Z,96852.58
2019-01-30T05:50:03.871Z,96864.89
2019-01-30T05:52:34.545Z,96860.17
2019-01-30T05:55:06.225Z,96858.39
2019-01-30T05:57:37.069Z,96851.86
2019-01-30T06:00:12.262Z,96851.09
2019-01-30T06:02:43.173Z,96856.38
2019-01-30T06:05:13.929Z,96855.08
2019-01-30T06:07:44.627Z,96856.66
2019-01-30T06:10:16.165Z,96850.17
2019-01-30T06:12:46.960Z,96857.70
2019-01-30T06:15:17.902Z,96852.34
2019-01-30T06:17:48.879Z,96861.88
2019-01-30T06:20:22.279Z,96854.94
2019-01-30T06:22:53.809Z,96869.88
2019-01-30T06:25:24.907Z,96867.63
2019-01-30T06:27:55.902Z,96874.39
2019-01-30T06:30:26.590Z,96884.87
2019-01-30T06:32:57.580Z,96886.44
2019-01-30T06:35:28.642Z,96890.36
2019-01-30T06:37:59.529Z,96895.56
2019-01-30T06:40:32.800Z,96888.33
2019-01-30T06:43:04.072Z,96901.51
2019-01-30T06:45:34.601Z,96904.30
2019-01-30T06:48:05.801Z,96904.48
2019-01-30T06:50:36.452Z,96909.62
2019-01-30T06:53:07.186Z,96918.70
2019-01-30T06:55:37.821Z,96911.30
2019-01-30T06:58:08.932Z,96919.90
2019-01-30T07:00:39.594Z,96916.11
2019-01-30T07:03:10.376Z,96926.41
2019-01-30T07:05:40.909Z,96928.48
2019-01-30T07:08:12.105Z,96940.80
2019-01-30T07:10:42.641Z,96930.80
2019-01-30T07:13:13.225Z,96944.85
2019-01-30T07:15:44.004Z,96930.62
2019-01-30T07:18:14.601Z,96942.86
2019-01-30T07:20:45.352Z,96944.78
2019-01-30T07:23:16.101Z,96947.09
2019-01-30T07:25:47.031Z,96951.55
2019-01-30T07:28:18.086Z,96949.98
2019-01-30T07:30:49.125Z,96948.89
2019-01-30T07:33:22.472Z,96949.59
2019-01-30T07:35:53.360Z,96962.34
2019-01-30T07:38:24.337Z,96964.27
2019-01-30T07:40:55.212Z,96964.57
2019-01-30T07:43:26.106Z,96982.61
2019-01-30T07:45:57.103Z,96979.44
2019-01-30T07:48:29.213Z,96984.06
2019-01-30T07:51:00.092Z,96989.22
2019-01-30T07:53:31.189Z,96989.38
2019-01-30T07:56:02.097Z,96985.46
2019-01-30T07:58:32.966Z,96993.72
2019-01-30T08:01:03.855Z,97005.06
2019-01-30T08:03:35.566Z,97003.62
2019-01-30T08:06:06.719Z,97007.38
2019-01-30T08:08:37.661Z,97015.95
2019-01-30T08:11:08.444Z,97019.66
2019-01-30T08:13:39.425Z,97015.36
2019-01-30T08:16:10.302Z,97022.70
2019-01-30T08:18:41.371Z,97026.78
2019-01-30T08:21:11.995Z,97033.94
2019-01-30T08:23:43.387Z,97039.58
2019-01-30T08:26:14.746Z,97040.91
2019-01-30T08:28:46.277Z,97043.73
2019-01-30T08:31:17.180Z,97039.66
2019-01-30T08:33:48.912Z,97047.72
2019-01-30T08:36:19.879Z,97057.15
2019-01-30T08:38:51.428Z,97055.98
2019-01-30T08:41:22.368Z,97058.95
2019-01-30T08:43:54.165Z,97066.94
2019-01-30T08:46:25.063Z,97078.01
2019-01-30T08:48:55.966Z,97071.16
2019-01-30T08:51:26.638Z,97087.98
2019-01-30T08:53:57.605Z,97083.63
2019-01-30T08:56:28.512Z,97087.19
2019-01-30T08:58:59.511Z,97100.34
2019-01-30T09:01:30.532Z,97088.70
2019-01-30T09:04:02.173Z,97095.36
2019-01-30T09:06:32.983Z,97109.41
2019-01-30T09:09:05.784Z,97109.56
2019-01-30T09:11:36.867Z,97104.16
2019-01-30T09:14:07.778Z,97127.11
2019-01-30T09:16:38.678Z,97123.80
2019-01-30T09:19:11.838Z,97130.17
2019-01-30T09:21:42.706Z,97137.81
2019-01-30T09:24:16.085Z,97137.93
2019-01-30T09:26:45.901Z,97142.04
2019-01-30T09:29:16.896Z,97133.70
2019-01-30T09:31:47.904Z,97137.11
2019-01-30T09:34:18.905Z,97152.02
2019-01-30T09:36:49.884Z,97153.35
2019-01-30T09:39:20.607Z,97153.38
2019-01-30T09:41:51.541Z,97160.66
2019-01-30T09:44:22.533Z,97168.53
2019-01-30T09:46:53.432Z,97167.70
2019-01-30T09:49:24.332Z,97163.52
2019-01-30T09:51:55.221Z,97180.36
2019-01-30T09:54:26.178Z,97189.20
2019-01-30T09:56:56.971Z,97196.81
2019-01-30T09:59:27.962Z,97210.33
2019-01-30T10:01:59.882Z,97210.40
2019-01-30T10:04:30.866Z,97222.94
2019-01-30T10:07:01.742Z,97229.84
2019-01-30T10:09:32.792Z,97235.13
2019-01-30T10:12:03.637Z,97243.51
2019-01-30T10:14:34.626Z,97248.13
2019-01-30T10:17:05.720Z,97261.65
2019-01-30T10:19:41.399Z,97268.73
2019-01-30T10:22:10.460Z,97302.55
2019-01-30T10:24:41.521Z,97276.02
2019-01-30T10:27:12.424Z,97286.44
2019-01-30T10:29:43.520Z,97288.20
2019-01-30T10:32:14.421Z,97298.48
2019-01-30T10:34:45.481Z,97305.78
2019-01-30T10:37:16.497Z,97313.19
2019-01-30T10:39:47.398Z,97323.73
2019-01-30T10:42:18.390Z,97323.94
2019-01-30T10:44:49.357Z,97320.28
2019-01-30T10:47:20.143Z,97318.82
2019-01-30T10:49:51.214Z,97330.12
2019-01-30T10:52:22.041Z,97329.89
2019-01-30T10:54:53.223Z,97343.62
2019-01-30T10:57:24.223Z,97341.92
2019-01-30T10:59:55.206Z,97335.60
2019-01-30T11:02:26.190Z,97357.61
2019-01-30T11:04:57.464Z,97351.83
2019-01-30T11:07:28.280Z,97361.02
2019-01-30T11:09:59.341Z,97367.08
2019-01-30T11:12:30.245Z,97367.52
2019-01-30T11:15:03.014Z,97364.77
2019-01-30T11:17:33.876Z,97353.40
2019-01-30T11:20:05.908Z,97364.42
2019-01-30T11:22:36.784Z,97364.37
2019-01-30T11:25:10.525Z,97374.14
2019-01-30T11:27:41.423Z,97380.42
2019-01-30T11:30:13.016Z,97369.18
2019-01-30T11:32:43.996Z,97384.73
2019-01-30T11:35:15.249Z,97372.95
2019-01-30T11:37:46.308Z,97378.50
2019-01-30T11:40:18.018Z,97385.75
2019-01-30T11:42:48.902Z,97380.88
2019-01-30T11:45:25.615Z,97385.02
2019-01-30T11:47:56.509Z,97379.09
2019-01-30T11:50:27.813Z,97397.59
2019-01-30T11:52:58.733Z,97394.25
2019-01-30T11:55:29.745Z,97402.47
2019-01-30T11:58:00.657Z,97398.33
2019-01-30T12:00:54.990Z,97415.36
2019-01-30T12:03:25.897Z,97414.67
2019-01-30T12:05:57.610Z,97427.25
2019-01-30T12:08:28.487Z,97435.09
2019-01-30T12:10:59.904Z,97438.41
2019-01-30T12:13:30.836Z,97439.45
2019-01-30T12:16:02.037Z,97441.52
2019-01-30T12:18:34.250Z,97446.98
2019-01-30T12:21:05.273Z,97453.53
2019-01-30T12:23:36.164Z,97456.00
2019-01-30T12:26:07.276Z,97461.72
2019-01-30T12:28:38.154Z,97458.09
2019-01-30T12:31:09.369Z,97474.45
2019-01-30T12:33:40.132Z,97475.28
2019-01-30T12:36:11.220Z,97484.15
2019-01-30T12:38:42.008Z,97476.84
2019-01-30T12:41:13.287Z,97474.09
2019-01-30T12:43:45.350Z,97488.59
2019-01-30T12:46:16.381Z,97493.61
2019-01-30T12:48:48.906Z,97493.83
2019-01-30T12:51:20.108Z,97497.55
2019-01-30T12:53:51.414Z,97500.40
2019-01-30T12:56:22.404Z,97500.47
2019-01-30T12:58:53.311Z,97511.61
2019-01-30T13:01:24.381Z,97515.14
2019-01-30T13:03:55.176Z,97512.55
2019-01-30T13:06:26.058Z,97517.61
2019-01-30T13:08:56.840Z,97526.64
2019-01-30T13:11:28.040Z,97522.46
2019-01-30T13:13:58.943Z,97514.32
2019-01-30T13:16:29.913Z,97499.91
2019-01-30T13:19:00.824Z,97527.22
2019-01-30T13:21:32.282Z,97516.57
2019-01-30T13:24:03.101Z,97525.44
2019-01-30T13:26:34.095Z,97516.73
2019-01-30T13:29:05.062Z,97527.98
2019-01-30T13:31:36.322Z,97532.34
2019-01-30T13:34:07.572Z,97532.00
2019-01-30T13:36:40.226Z,97543.09
2019-01-30T13:39:11.293Z,97541.27
2019-01-30T13:41:42.347Z,97545.36
2019-01-30T13:44:13.278Z,97537.66
2019-01-30T13:46:44.307Z,97542.62
2019-01-30T13:49:15.154Z,97538.87
2019-01-30T13:51:46.078Z,97548.66
2019-01-30T13:54:16.925Z,97555.61
2019-01-30T13:56:48.113Z,97567.53
2019-01-30T13:59:19.107Z,97570.23
2019-01-30T14:01:50.083Z,97571.05
2019-01-30T14:04:21.094Z,97577.14
2019-01-30T14:06:51.961Z,97576.73
2019-01-30T14:09:22.954Z,97587.73
2019-01-30T14:11:53.938Z,97586.40
2019-01-30T14:14:24.844Z,97597.47
2019-01-30T14:16:56.012Z,97606.19
2019-01-30T14:19:26.940Z,97612.56
2019-01-30T14:21:57.900Z,97614.39
2019-01-30T14:24:28.689Z,97612.24
2019-01-30T14:26:59.961Z,97617.95
2019-01-30T14:29:30.889Z,97612.94
2019-01-30T14:32:02.179Z,97622.03
2019-01-30T14:34:32.984Z,97614.20
2019-01-30T14:37:04.792Z,97629.70
2019-01-30T14:39:35.554Z,97629.92
2019-01-30T14:42:06.745Z,97619.55
2019-01-30T14:44:37.624Z,97626.16
2019-01-30T14:47:10.425Z,97629.92
2019-01-30T14:49:41.062Z,97643.38
2019-01-30T14:52:12.153Z,97640.48
2019-01-30T14:54:42.921Z,97638.02
2019-01-30T14:57:13.901Z,97647.97
2019-01-30T14:59:45.039Z,97644.48
2019-01-30T15:02:16.029Z,97644.30
2019-01-30T15:04:46.792Z,97652.09
2019-01-30T15:07:28.131Z,97648.98
2019-01-30T15:09:50.397Z,97650.00
2019-01-30T15:12:21.459Z,97654.72
2019-01-30T15:14:52.317Z,97657.10
2019-01-30T15:17:23.264Z,97655.89
2019-01-30T15:19:54.265Z,97661.00
2019-01-30T15:22:25.457Z,97656.15
2019-01-30T15:24:56.234Z,97665.76
2019-01-30T15:27:27.123Z,97662.75
2019-01-30T15:29:58.016Z,97670.73
2019-01-30T15:32:31.677Z,97666.39
2019-01-30T15:35:01.543Z,97670.11
2019-01-30T15:37:33.123Z,97669.03
2019-01-30T15:40:04.944Z,97671.66
2019-01-30T15:42:35.953Z,97674.23
2019-01-30T15:45:10.056Z,97670.14
2019-01-30T15:47:41.241Z,97669.13
2019-01-30T15:50:32.672Z,97669.34
2019-01-30T15:53:05.108Z,97670.14
2019-01-30T15:55:37.221Z,97673.24
2019-01-30T15:58:10.430Z,97660.05
2019-01-30T16:00:46.979Z,97673.64
2019-01-30T16:03:18.003Z,97677.37
2019-01-30T16:05:49.068Z,97681.71
2019-01-30T16:08:20.256Z,97679.17
2019-01-30T16:10:51.116Z,97681.66
2019-01-30T16:13:22.294Z,97685.77
2019-01-30T16:15:58.856Z,97681.39
2019-01-30T16:18:29.993Z,97687.12
2019-01-30T16:21:00.924Z,97683.34
2019-01-30T16:23:32.093Z,97680.90
2019-01-30T16:26:03.015Z,97681.73
2019-01-30T16:28:34.128Z,97686.88
2019-01-30T16:31:05.104Z,97682.56
2019-01-30T16:33:36.145Z,97690.59
2019-01-30T16:36:06.973Z,97686.93
2019-01-30T16:38:37.768Z,97691.25
2019-01-30T16:41:08.312Z,97685.11
2019-01-30T16:43:38.986Z,97682.06
2019-01-30T16:46:09.625Z,97691.41
2019-01-30T16:48:40.305Z,97680.80
2019-01-30T16:51:10.937Z,97684.87
2019-01-30T16:53:41.506Z,97681.91
2019-01-30T16:56:12.145Z,97687.23
2019-01-30T16:58:42.833Z,97687.56
2019-01-30T17:01:13.678Z,97696.76
2019-01-30T17:03:44.227Z,97690.62
2019-01-30T17:06:15.150Z,97696.79
2019-01-30T17:08:45.691Z,97694.92
2019-01-30T17:11:16.224Z,97694.73
2019-01-30T17:13:46.818Z,97690.64
2019-01-30T17:16:17.358Z,97703.44
2019-01-30T17:18:47.896Z,97701.58
2019-01-30T17:21:18.772Z,97699.52
2019-01-30T17:23:49.481Z,97699.20
2019-01-30T17:26:20.159Z,97701.86
2019-01-30T17:28:50.778Z,97702.47
2019-01-30T17:31:24.722Z,97703.41
2019-01-30T17:33:55.402Z,97700.93
2019-01-30T17:36:25.989Z,97703.33
2019-01-30T17:38:56.534Z,97699.02
2019-01-30T17:41:27.505Z,97703.19
2019-01-30T17:43:58.113Z,97704.37
2019-01-30T17:46:28.703Z,97709.58
2019-01-30T17:48:59.253Z,97703.88
2019-01-30T17:51:29.933Z,97707.26
2019-01-30T17:54:00.474Z,97716.15
2019-01-30T17:56:31.175Z,97710.01
2019-01-30T17:59:01.774Z,97714.31
2019-01-30T18:01:32.467Z,97719.02
2019-01-30T18:04:03.002Z,97710.24
2019-01-30T18:06:33.721Z,97718.81
2019-01-30T18:09:07.598Z,97710.86
2019-01-30T18:11:38.653Z,97709.53
2019-01-30T18:14:09.188Z,97712.27
2019-01-30T18:16:40.177Z,97706.86
2019-01-30T18:19:10.731Z,97713.20
2019-01-30T18:21:41.355Z,97709.61
2019-01-30T18:24:12.033Z,97709.20
2019-01-30T18:26:42.639Z,97706.37
2019-01-30T18:29:13.178Z,97709.22
2019-01-30T18:31:43.774Z,97708.39
2019-01-30T18:34:14.314Z,97705.55
2019-01-30T18:36:45.665Z,97702.59
2019-01-30T18:39:16.214Z,97706.34
2019-01-30T18:41:46.816Z,97707.86
2019-01-30T18:44:18.344Z,97712.96
2019-01-30T18:46:49.027Z,97713.05
2019-01-30T18:49:19.575Z,97712.43
2019-01-30T18:51:50.286Z,97709.56
2019-01-30T18:54:20.831Z,97710.69
2019-01-30T18:56:51.441Z,97706.00
2019-01-30T18:59:21.996Z,97712.34
2019-01-30T19:01:52.631Z,97715.41
2019-01-30T19:04:23.179Z,97709.06
2019-01-30T19:06:54.190Z,97707.13
2019-01-30T19:09:24.887Z,97707.24
2019-01-30T19:11:55.569Z,97703.55
2019-01-30T19:14:26.116Z,97706.83
2019-01-30T19:16:56.718Z,97711.81
2019-01-30T19:19:27.263Z,97708.00
2019-01-30T19:21:57.855Z,97706.47
2019-01-30T19:24:28.453Z,97709.63
2019-01-30T19:26:59.115Z,97708.50
2019-01-30T19:29:29.664Z,97710.73
2019-01-30T19:32:00.343Z,97708.79
2019-01-30T19:34:30.908Z,97705.80
2019-01-30T19:37:03.526Z,97708.04
2019-01-30T19:39:33.750Z,97700.20
2019-01-30T19:42:04.614Z,97699.46
2019-01-30T19:44:35.563Z,97700.28
2019-01-30T19:47:06.698Z,97692.81
2019-01-30T19:49:37.318Z,97694.22
2019-01-30T19:52:08.224Z,97689.63
2019-01-30T19:54:38.762Z,97686.18
2019-01-30T19:57:09.647Z,97687.92
2019-01-30T19:59:40.189Z,97690.45
2019-01-30T20:02:10.983Z,97687.51
2019-01-30T20:04:41.714Z,97688.91
2019-01-30T20:07:14.913Z,97683.53
2019-01-30T20:09:45.036Z,97687.72
2019-01-30T20:12:15.879Z,97684.98
2019-01-30T20:14:46.422Z,97684.45
2019-01-30T20:17:18.101Z,97683.25
2019-01-30T20:19:48.641Z,97683.16
2019-01-30T20:22:19.578Z,97683.25
2019-01-30T20:24:50.173Z,97677.95
2019-01-30T20:27:20.869Z,97680.06
2019-01-30T20:29:51.417Z,97679.23
2019-01-30T20:32:22.105Z,97676.36
2019-01-30T20:34:52.644Z,97676.30
2019-01-30T20:37:26.234Z,97677.16
2019-01-30T20:39:55.569Z,97674.00
2019-01-30T20:42:26.179Z,97674.30
2019-01-30T20:44:56.712Z,97675.41
2019-01-30T20:47:27.394Z,97674.99
2019-01-30T20:49:58.930Z,97679.15
2019-01-30T20:52:29.532Z,97672.27
2019-01-30T20:55:00.331Z,97676.70
2019-01-30T20:57:31.081Z,97669.47
2019-01-30T21:00:02.155Z,97677.13
2019-01-30T21:02:33.968Z,97671.83
2019-01-30T21:05:05.010Z,97665.52
2019-01-30T21:07:37.338Z,97673.47
2019-01-30T21:10:10.479Z,97671.02
2019-01-30T21:12:41.064Z,97667.89
2019-01-30T21:15:13.361Z,97666.81
2019-01-30T21:17:44.187Z,97668.71
2019-01-30T21:20:16.625Z,97661.88
2019-01-30T21:22:47.301Z,97662.02
2019-01-30T21:25:19.796Z,97661.80
2019-01-30T21:27:50.518Z,97655.80
2019-01-30T21:30:27.041Z,97655.17
2019-01-30T21:32:57.706Z,97646.96
2019-01-30T21:35:28.236Z,97647.35
2019-01-30T21:37:58.967Z,97651.08
2019-01-30T21:40:29.449Z,97647.91
2019-01-30T21:43:00.045Z,97645.78
2019-01-30T21:45:30.597Z,97641.09
2019-01-30T21:48:01.203Z,97635.31
2019-01-30T21:50:31.940Z,97634.26
2019-01-30T21:53:02.585Z,97624.82
2019-01-30T21:55:33.114Z,97622.97
2019-01-30T21:58:03.989Z,97617.59
2019-01-30T22:00:34.730Z,97618.64
2019-01-30T22:03:05.932Z,97609.09
2019-01-30T22:05:36.465Z,97610.83
2019-01-30T22:08:07.353Z,97609.93
2019-01-30T22:10:37.969Z,97608.52
2019-01-30T22:13:09.482Z,97600.49
2019-01-30T22:15:40.008Z,97600.57
2019-01-30T22:18:10.602Z,97605.16
2019-01-30T22:20:41.137Z,97596.76
2019-01-30T22:23:11.734Z,97587.94
2019-01-30T22:25:42.322Z,97586.20
2019-01-30T22:28:13.267Z,97578.83
2019-01-30T22:30:43.798Z,97579.32
2019-01-30T22:33:14.395Z,97573.68
2019-01-30T22:35:44.924Z,97569.27
2019-01-30T22:38:15.526Z,97567.46
2019-01-30T22:40:46.055Z,97566.28
2019-01-30T22:43:16.654Z,97562.44
2019-01-30T22:45:47.194Z,97559.37
2019-01-30T22:48:17.804Z,97556.65
2019-01-30T22:50:48.336Z,97559.72
2019-01-30T22:53:19.032Z,97561.19
2019-01-30T22:55:49.587Z,97560.84
2019-01-30T22:58:20.641Z,97558.42
2019-01-30T23:01:32.777Z,97555.07
2019-01-30T23:04:45.779Z,97552.55
2019-01-30T23:07:56.004Z,97549.00
2019-01-30T23:11:09.022Z,97545.95
2019-01-30T23:14:09.587Z,97547.33
2019-01-30T23:17:16.087Z,97546.02
2019-01-30T23:20:07.877Z,97537.91
2019-01-30T23:23:25.757Z,97539.95
2019-01-30T23:26:20.002Z,97533.87
2019-01-30T23:29:40.242Z,97527.08
2019-01-30T23:32:45.550Z,97528.20
2019-01-30T23:35:48.960Z,97517.84
2019-01-30T23:39:15.450Z,97522.23
2019-01-30T23:42:27.333Z,97518.25
2019-01-30T23:45:23.213Z,97511.63
2019-01-30T23:48:40.713Z,97509.69
2019-01-30T23:51:51.914Z,97513.36
2019-01-30T23:55:05.646Z,97504.17
2019-01-30T23:58:30.970Z,97506.83
